Olma — V3YO7 — position and weather

sailwx.info

Track history (hours):
 
Tides and Currents Weather Stations Pressure Air Temp Water Temp Dewpoint Dewpoint Depression Visibility Wind Speed Wind Dir Waves Ship Positions

Olma

Last reported at 2018-May-25 09:16 UTC. Time now 2018-May-25 18:23 UTC.
Position N 46°22' E 031°01'.

Length 80 m; draft 4.1 m.

Type: Cargo ship. MMSI: 312012000.

Date/timePositionNaut miles runAvg speedWind from/ knotsBaromVisibWave heightAir tempDewpointWater temp
2018-May-25 09:16N 46°22' E 031°01'2 5.2
2018-May-25 08:59N 46°21' E 030°60'4 8.7
2018-May-25 08:30N 46°17' E 030°60'14 8.5
2018-May-25 06:49N 46°04' E 030°50'7 8.7
2018-May-25 05:59N 45°58' E 030°44'9 8.7
2018-May-25 04:59N 45°51' E 030°37'4 8.5
2018-May-25 04:30N 45°47' E 030°34'6 8.8
2018-May-25 03:49N 45°42' E 030°29'  
2018-May-17 21:50N 39°44' E 026°04'  
2018-May-15 14:20N 35°58' E 032°16'3 8.0
2018-May-15 13:59N 35°58' E 032°19'4 7.9
2018-May-15 13:30N 35°58' E 032°24'4 7.8
2018-May-15 13:00N 35°58' E 032°29'4 7.8
2018-May-15 12:30N 35°58' E 032°33'4 8.1
2018-May-15 12:00N 35°58' E 032°38'4 8.5
2018-May-15 11:30N 35°57' E 032°44'4 8.4
2018-May-15 11:00N 35°58' E 032°49'  
Track history (hours):
 
Tides and Currents Weather Stations Pressure Air Temp Water Temp Dewpoint Dewpoint Depression Visibility Wind Speed Wind Dir Waves Ship Positions

Olma

Last reported at 2018-May-25 09:16 UTC. Time now 2018-May-25 18:23 UTC.
Position N 46°22' E 031°01'.

Length 80 m; draft 4.1 m.

Type: Cargo ship. MMSI: 312012000.

Date/timePositionNaut miles runAvg speedWind from/ knotsBaromVisibWave heightAir tempDewpointWater temp
2018-May-25 09:16N 46°22' E 031°01'2 5.2
2018-May-25 08:59N 46°21' E 030°60'4 8.7
2018-May-25 08:30N 46°17' E 030°60'14 8.5
2018-May-25 06:49N 46°04' E 030°50'7 8.7
2018-May-25 05:59N 45°58' E 030°44'9 8.7
2018-May-25 04:59N 45°51' E 030°37'4 8.5
2018-May-25 04:30N 45°47' E 030°34'6 8.8
2018-May-25 03:49N 45°42' E 030°29'  
2018-May-17 21:50N 39°44' E 026°04'  
2018-May-15 14:20N 35°58' E 032°16'3 8.0
2018-May-15 13:59N 35°58' E 032°19'4 7.9
2018-May-15 13:30N 35°58' E 032°24'4 7.8
2018-May-15 13:00N 35°58' E 032°29'4 7.8
2018-May-15 12:30N 35°58' E 032°33'4 8.1
2018-May-15 12:00N 35°58' E 032°38'4 8.5
2018-May-15 11:30N 35°57' E 032°44'4 8.4
2018-May-15 11:00N 35°58' E 032°49'  

Dump ship's entire track history